createdAt,value
2023-04-16T00:01:04.135Z,10.63
2023-04-16T00:03:34.204Z,7.53
2023-04-16T00:06:02.746Z,8.90
2023-04-16T00:08:30.895Z,8.87
2023-04-16T00:10:59.315Z,8.00
2023-04-16T00:13:27.997Z,9.47
2023-04-16T00:15:56.584Z,9.23
2023-04-16T00:18:24.924Z,8.07
2023-04-16T00:20:54.858Z,7.93
2023-04-16T00:23:25.060Z,8.17
2023-04-16T00:25:53.986Z,9.00
2023-04-16T00:28:22.244Z,8.97
2023-04-16T00:30:50.382Z,8.47
2023-04-16T00:33:18.959Z,8.60
2023-04-16T00:35:47.443Z,7.77
2023-04-16T00:38:17.103Z,7.60
2023-04-16T00:40:45.514Z,8.10
2023-04-16T00:43:13.557Z,8.37
2023-04-16T00:45:43.344Z,9.40
2023-04-16T00:48:11.348Z,8.57
2023-04-16T00:50:39.519Z,9.00
2023-04-16T00:53:08.059Z,9.53
2023-04-16T00:55:37.747Z,6.70
2023-04-16T00:58:05.975Z,9.97
2023-04-16T01:00:34.399Z,8.00
2023-04-16T01:03:02.749Z,9.03
2023-04-16T01:05:32.161Z,8.07
2023-04-16T01:08:01.047Z,8.37
2023-04-16T01:10:29.702Z,10.43
2023-04-16T01:12:59.546Z,9.60
2023-04-16T01:15:27.685Z,8.13
2023-04-16T01:17:55.796Z,8.80
2023-04-16T01:20:23.969Z,8.30
2023-04-16T01:22:53.836Z,10.23
2023-04-16T01:25:21.837Z,8.93
2023-04-16T01:27:51.076Z,8.33
2023-04-16T01:30:19.433Z,8.97
2023-04-16T01:32:48.323Z,8.63
2023-04-16T01:35:18.285Z,9.60
2023-04-16T01:37:46.678Z,8.90
2023-04-16T01:40:16.448Z,9.47
2023-04-16T01:42:44.774Z,8.60
2023-04-16T01:45:13.386Z,8.93
2023-04-16T01:47:42.109Z,10.30
2023-04-16T01:50:11.228Z,9.47
2023-04-16T01:52:39.348Z,9.50
2023-04-16T01:55:08.299Z,8.40
2023-04-16T01:57:38.360Z,11.37
2023-04-16T02:00:08.534Z,8.30
2023-04-16T02:02:36.983Z,9.87
2023-04-16T02:05:05.520Z,10.00
2023-04-16T02:07:33.644Z,9.90
2023-04-16T02:10:01.724Z,9.27
2023-04-16T02:12:30.077Z,10.40
2023-04-16T02:14:59.564Z,8.83
2023-04-16T02:17:27.813Z,8.17
2023-04-16T02:19:55.839Z,10.53
2023-04-16T02:22:24.049Z,7.97
2023-04-16T02:24:52.057Z,8.23
2023-04-16T02:27:20.210Z,8.97
2023-04-16T02:29:48.274Z,7.63
2023-04-16T02:32:18.444Z,8.60
2023-04-16T02:34:46.475Z,9.63
2023-04-16T02:37:15.684Z,11.00
2023-04-16T02:39:44.213Z,10.43
2023-04-16T02:42:12.271Z,10.20
2023-04-16T02:44:40.552Z,8.57
2023-04-16T02:47:08.726Z,10.67
2023-04-16T02:49:38.400Z,11.07
2023-04-16T02:52:06.602Z,9.73
2023-04-16T02:54:34.606Z,9.33
2023-04-16T02:57:03.917Z,11.27
2023-04-16T02:59:31.982Z,11.23
2023-04-16T03:02:00.352Z,10.67
2023-04-16T03:04:28.585Z,11.00
2023-04-16T03:06:58.331Z,12.10
2023-04-16T03:09:26.349Z,12.57
2023-04-16T03:11:54.616Z,10.53
2023-04-16T03:14:22.915Z,12.07
2023-04-16T03:16:50.893Z,12.90
2023-04-16T03:19:19.329Z,11.30
2023-04-16T03:21:47.741Z,12.90
2023-04-16T03:24:17.864Z,11.33
2023-04-16T03:26:45.910Z,11.17
2023-04-16T03:29:14.071Z,12.37
2023-04-16T03:31:42.143Z,11.47
2023-04-16T03:34:10.218Z,13.00
2023-04-16T03:36:38.297Z,16.47
2023-04-16T03:39:06.661Z,12.97
2023-04-16T03:41:36.360Z,13.97
2023-04-16T03:44:04.393Z,15.50
2023-04-16T03:46:33.637Z,12.87
2023-04-16T03:49:01.791Z,12.70
2023-04-16T03:51:29.833Z,13.27
2023-04-16T03:53:57.872Z,15.53
2023-04-16T03:56:25.991Z,15.30
2023-04-16T03:58:55.853Z,12.13
2023-04-16T04:01:23.842Z,12.43
2023-04-16T04:03:52.523Z,13.70
2023-04-16T04:06:20.922Z,12.43
2023-04-16T04:08:50.635Z,12.87
2023-04-16T04:11:18.862Z,14.13
2023-04-16T04:13:47.169Z,12.83
2023-04-16T04:16:17.052Z,13.67
2023-04-16T04:18:45.193Z,12.43
2023-04-16T04:21:13.562Z,14.13
2023-04-16T04:23:42.683Z,12.53
2023-04-16T04:26:10.978Z,13.60
2023-04-16T04:28:39.105Z,10.77
2023-04-16T04:31:07.245Z,12.40
2023-04-16T04:33:36.865Z,11.37
2023-04-16T04:36:05.258Z,13.40
2023-04-16T04:38:33.482Z,12.07
2023-04-16T04:41:01.612Z,13.80
2023-04-16T04:43:29.819Z,11.73
2023-04-16T04:45:57.946Z,10.67
2023-04-16T04:48:26.865Z,12.60
2023-04-16T04:50:56.671Z,12.13
2023-04-16T04:53:24.707Z,10.60
2023-04-16T04:55:55.667Z,12.53
2023-04-16T04:58:26.996Z,11.50
2023-04-16T05:00:55.120Z,13.70
2023-04-16T05:03:23.525Z,12.47
2023-04-16T05:05:51.870Z,11.77
2023-04-16T05:08:21.710Z,14.20
2023-04-16T05:10:51.501Z,12.53
2023-04-16T05:13:19.955Z,13.47
2023-04-16T05:15:48.154Z,12.63
2023-04-16T05:18:16.488Z,12.20
2023-04-16T05:20:44.471Z,14.03
2023-04-16T05:23:12.689Z,13.77
2023-04-16T05:25:42.099Z,13.63
2023-04-16T05:28:10.426Z,13.70
2023-04-16T05:30:38.810Z,17.13
2023-04-16T05:33:07.154Z,18.13
2023-04-16T05:35:35.207Z,13.20
2023-04-16T05:38:04.662Z,17.40
2023-04-16T05:40:33.149Z,14.57
2023-04-16T05:43:02.805Z,16.33
2023-04-16T05:45:31.442Z,16.33
2023-04-16T05:47:59.621Z,18.50
2023-04-16T05:50:27.636Z,17.50
2023-04-16T05:52:56.172Z,16.83
2023-04-16T05:55:24.424Z,19.17
2023-04-16T05:57:52.729Z,17.20
2023-04-16T06:00:22.487Z,17.20
2023-04-16T06:02:51.076Z,17.23
2023-04-16T06:05:19.409Z,20.33
2023-04-16T06:07:47.524Z,17.97
2023-04-16T06:10:15.559Z,17.83
2023-04-16T06:12:43.665Z,20.53
2023-04-16T06:15:12.768Z,20.33
2023-04-16T06:17:42.505Z,17.57
2023-04-16T06:20:12.290Z,20.53
2023-04-16T06:22:40.558Z,19.93
2023-04-16T06:25:09.570Z,20.47
2023-04-16T06:27:37.750Z,18.27
2023-04-16T06:30:06.914Z,18.30
2023-04-16T06:32:35.300Z,19.07
2023-04-16T06:35:07.447Z,19.53
2023-04-16T06:37:35.624Z,20.60
2023-04-16T06:40:04.061Z,17.70
2023-04-16T06:42:32.578Z,19.13
2023-04-16T06:45:00.827Z,22.17
2023-04-16T06:47:28.931Z,22.33
2023-04-16T06:49:57.156Z,18.47
2023-04-16T06:52:27.183Z,19.03
2023-04-16T06:54:56.875Z,20.60
2023-04-16T06:57:24.994Z,21.60
2023-04-16T06:59:53.029Z,19.90
2023-04-16T07:02:21.690Z,19.90
2023-04-16T07:04:50.169Z,19.13
2023-04-16T07:07:18.275Z,22.80
2023-04-16T07:09:48.077Z,19.33
2023-04-16T07:12:16.438Z,21.10
2023-04-16T07:14:44.509Z,20.00
2023-04-16T07:17:12.716Z,20.20
2023-04-16T07:19:41.134Z,19.53
2023-04-16T07:22:09.434Z,19.90
2023-04-16T07:24:37.587Z,18.37
2023-04-16T07:27:08.711Z,22.20
2023-04-16T07:29:36.726Z,19.27
2023-04-16T07:32:06.805Z,19.63
2023-04-16T07:34:36.670Z,19.63
2023-04-16T07:37:04.947Z,19.50
2023-04-16T07:39:33.268Z,17.20
2023-04-16T07:42:01.674Z,19.20
2023-04-16T07:44:31.417Z,21.77
2023-04-16T07:46:59.958Z,17.10
2023-04-16T07:49:28.291Z,18.60
2023-04-16T07:51:56.308Z,17.93
2023-04-16T07:54:24.454Z,18.57
2023-04-16T07:56:52.538Z,16.60
2023-04-16T07:59:23.662Z,16.27
2023-04-16T08:01:54.811Z,18.30
2023-04-16T08:04:26.407Z,17.10
2023-04-16T08:06:55.228Z,15.93
2023-04-16T08:09:24.711Z,18.80
2023-04-16T08:11:53.028Z,16.10
2023-04-16T08:14:22.033Z,18.03
2023-04-16T08:16:51.390Z,17.40
2023-04-16T08:19:21.248Z,16.70
2023-04-16T08:21:49.319Z,17.37
2023-04-16T08:24:17.551Z,14.93
2023-04-16T08:26:45.676Z,17.73
2023-04-16T08:29:13.964Z,18.13
2023-04-16T08:31:42.873Z,19.40
2023-04-16T08:34:12.447Z,15.40
2023-04-16T08:36:42.244Z,17.83
2023-04-16T08:39:10.616Z,16.57
2023-04-16T08:41:42.416Z,17.73
2023-04-16T08:44:14.929Z,19.13
2023-04-16T08:46:43.819Z,19.07
2023-04-16T08:49:18.263Z,18.53
2023-04-16T08:51:53.342Z,17.73
2023-04-16T08:54:32.875Z,20.13
2023-04-16T08:57:01.944Z,23.13
2023-04-16T08:59:33.756Z,20.53
2023-04-16T09:02:02.537Z,18.97
2023-04-16T09:04:31.310Z,20.90
2023-04-16T09:07:01.379Z,19.50
2023-04-16T09:09:30.215Z,20.67
2023-04-16T09:11:58.204Z,22.73
2023-04-16T09:14:26.279Z,17.47
2023-04-16T09:16:55.899Z,20.07
2023-04-16T09:19:25.400Z,18.53
2023-04-16T09:21:53.827Z,21.93
2023-04-16T09:24:24.355Z,19.87
2023-04-16T09:26:54.179Z,18.90
2023-04-16T09:29:37.180Z,19.37
2023-04-16T09:32:06.525Z,18.53
2023-04-16T09:34:35.479Z,19.13
2023-04-16T09:37:18.935Z,19.27
2023-04-16T09:39:57.574Z,19.13
2023-04-16T09:42:27.464Z,17.70
2023-04-16T09:44:58.662Z,22.07
2023-04-16T09:47:40.514Z,20.27
2023-04-16T09:50:12.696Z,18.40
2023-04-16T09:52:41.473Z,21.17
2023-04-16T09:55:11.177Z,20.93
2023-04-16T09:57:39.723Z,21.47
2023-04-16T10:00:10.399Z,19.07
2023-04-16T10:02:42.800Z,22.43
2023-04-16T10:05:11.805Z,22.87
2023-04-16T10:07:40.349Z,21.73
2023-04-16T10:10:11.645Z,24.00
2023-04-16T10:12:39.813Z,21.50
2023-04-16T10:15:09.363Z,21.40
2023-04-16T10:17:38.617Z,24.07
2023-04-16T10:20:08.522Z,25.40
2023-04-16T10:22:39.377Z,23.93
2023-04-16T10:25:09.001Z,22.53
2023-04-16T10:27:38.708Z,22.83
2023-04-16T10:30:09.316Z,26.40
2023-04-16T10:32:39.616Z,24.50
2023-04-16T10:35:08.559Z,26.23
2023-04-16T10:37:38.968Z,23.63
2023-04-16T10:40:26.650Z,23.50
2023-04-16T10:43:06.537Z,23.93
2023-04-16T10:45:41.235Z,23.90
2023-04-16T10:48:18.169Z,23.00
2023-04-16T10:50:59.410Z,24.60
2023-04-16T10:53:31.028Z,24.17
2023-04-16T10:56:01.118Z,23.67
2023-04-16T10:58:37.049Z,26.70
2023-04-16T11:01:29.033Z,24.93
2023-04-16T11:04:02.109Z,27.40
2023-04-16T11:06:34.387Z,31.10
2023-04-16T11:09:07.366Z,29.50
2023-04-16T11:11:46.952Z,29.03
2023-04-16T11:14:21.228Z,29.87
2023-04-16T11:16:52.132Z,27.20
2023-04-16T11:19:23.208Z,27.80
2023-04-16T11:21:57.667Z,28.63
2023-04-16T11:24:31.506Z,27.97
2023-04-16T11:27:05.856Z,28.93
2023-04-16T11:29:36.532Z,25.47
2023-04-16T11:32:05.298Z,31.30
2023-04-16T11:34:34.266Z,31.03
2023-04-16T11:37:03.075Z,26.83
2023-04-16T11:39:32.459Z,27.90
2023-04-16T11:42:01.423Z,28.13
2023-04-16T11:44:32.081Z,25.73
2023-04-16T11:47:09.186Z,27.67
2023-04-16T11:49:38.935Z,25.23
2023-04-16T11:52:07.610Z,26.73
2023-04-16T11:54:38.310Z,27.27
2023-04-16T11:57:07.475Z,24.03
2023-04-16T11:59:37.235Z,26.63
2023-04-16T12:02:41.740Z,22.87
2023-04-16T12:05:29.101Z,23.00
2023-04-16T12:07:58.480Z,22.60
2023-04-16T12:10:28.632Z,20.80
2023-04-16T12:13:11.111Z,19.87
2023-04-16T12:15:46.916Z,18.70
2023-04-16T12:18:18.732Z,19.87
2023-04-16T12:20:47.881Z,20.93
2023-04-16T12:23:28.258Z,19.67
2023-04-16T12:26:00.306Z,18.57
2023-04-16T12:28:33.555Z,20.27
2023-04-16T12:31:04.254Z,18.27
2023-04-16T12:33:37.824Z,21.23
2023-04-16T12:36:19.747Z,18.00
2023-04-16T12:38:48.024Z,17.33
2023-04-16T12:41:16.171Z,15.20
2023-04-16T12:43:44.558Z,15.40
2023-04-16T12:46:13.206Z,15.37
2023-04-16T12:48:44.163Z,14.70
2023-04-16T12:51:12.373Z,15.10
2023-04-16T12:53:40.499Z,15.00
2023-04-16T12:56:08.965Z,14.77
2023-04-16T12:58:38.663Z,11.53
2023-04-16T13:01:06.819Z,12.57
2023-04-16T13:03:37.472Z,11.63
2023-04-16T13:06:07.430Z,14.07
2023-04-16T13:08:35.962Z,11.77
2023-04-16T13:11:04.733Z,12.47
2023-04-16T13:13:32.970Z,11.30
2023-04-16T13:16:01.416Z,11.63
2023-04-16T13:18:29.624Z,10.47
2023-04-16T13:20:57.812Z,11.63
2023-04-16T13:23:27.943Z,10.70
2023-04-16T13:25:56.295Z,12.20
2023-04-16T13:28:24.470Z,12.77
2023-04-16T13:30:54.817Z,10.37
2023-04-16T13:33:23.136Z,9.70
2023-04-16T13:35:52.079Z,13.10
2023-04-16T13:38:20.398Z,11.43
2023-04-16T13:40:49.938Z,10.73
2023-04-16T13:43:19.150Z,10.00
2023-04-16T13:45:47.294Z,10.07
2023-04-16T13:49:05.518Z,10.03
2023-04-16T13:51:34.430Z,9.40
2023-04-16T13:54:02.561Z,10.20
2023-04-16T13:56:32.499Z,10.27
2023-04-16T13:59:00.751Z,9.67
2023-04-16T14:01:29.854Z,10.30
2023-04-16T14:03:59.586Z,9.77
2023-04-16T14:06:28.183Z,10.10
2023-04-16T14:08:56.555Z,9.83
2023-04-16T14:11:25.031Z,11.60
2023-04-16T14:13:54.686Z,10.57
2023-04-16T14:16:23.350Z,10.80
2023-04-16T14:18:52.226Z,10.87
2023-04-16T14:21:20.766Z,13.00
2023-04-16T14:23:48.947Z,13.87
2023-04-16T14:26:17.263Z,12.50
2023-04-16T14:28:45.729Z,14.30
2023-04-16T14:31:17.481Z,15.17
2023-04-16T14:33:46.005Z,12.73
2023-04-16T14:36:14.418Z,10.67
2023-04-16T14:38:43.474Z,11.80
2023-04-16T14:41:12.675Z,11.47
2023-04-16T14:43:41.536Z,12.20
2023-04-16T14:46:10.123Z,13.87
2023-04-16T14:48:40.172Z,16.23
2023-04-16T14:51:08.351Z,14.07
2023-04-16T14:53:38.108Z,38.50
2023-04-16T14:56:07.073Z,71.90
2023-04-16T14:58:37.918Z,38.27
2023-04-16T15:01:07.596Z,39.47
2023-04-16T15:03:36.556Z,26.40
2023-04-16T15:06:06.745Z,19.10
2023-04-16T15:08:36.027Z,20.67
2023-04-16T15:11:04.111Z,19.43
2023-04-16T15:13:34.417Z,32.80
2023-04-16T15:16:02.912Z,22.60
2023-04-16T15:18:32.326Z,18.63
2023-04-16T15:21:00.467Z,17.33
2023-04-16T15:23:30.052Z,20.47
2023-04-16T15:25:58.200Z,17.43
2023-04-16T15:28:26.364Z,19.60
2023-04-16T15:30:54.729Z,26.60
2023-04-16T15:33:23.060Z,17.07
2023-04-16T15:35:52.180Z,19.70
2023-04-16T15:38:21.410Z,22.03
2023-04-16T15:40:51.073Z,15.67
2023-04-16T15:43:19.137Z,15.70
2023-04-16T15:45:47.857Z,15.67
2023-04-16T15:48:17.849Z,15.63
2023-04-16T15:50:46.501Z,16.27
2023-04-16T15:53:14.847Z,15.93
2023-04-16T15:55:44.541Z,13.63
2023-04-16T15:58:14.237Z,12.57
2023-04-16T16:00:42.299Z,15.10
2023-04-16T16:03:10.685Z,16.07
2023-04-16T16:05:40.473Z,14.70
2023-04-16T16:08:08.753Z,14.67
2023-04-16T16:10:37.178Z,14.53
2023-04-16T16:13:08.154Z,16.07
2023-04-16T16:15:38.043Z,13.37
2023-04-16T16:18:06.838Z,11.70
2023-04-16T16:20:35.089Z,13.93
2023-04-16T16:23:03.511Z,14.10
2023-04-16T16:25:31.752Z,16.93
2023-04-16T16:28:00.353Z,16.90
2023-04-16T16:30:28.552Z,14.33
2023-04-16T16:32:59.100Z,14.50
2023-04-16T16:35:27.557Z,15.07
2023-04-16T16:37:57.502Z,14.20
2023-04-16T16:40:25.868Z,15.13
2023-04-16T16:42:53.993Z,12.73
2023-04-16T16:45:22.254Z,14.53
2023-04-16T16:47:50.574Z,12.83
2023-04-16T16:50:20.381Z,16.57
2023-04-16T16:52:48.558Z,14.70
2023-04-16T16:55:18.684Z,16.53
2023-04-16T16:57:47.240Z,15.50
2023-04-16T17:00:19.865Z,15.23
2023-04-16T17:02:48.890Z,15.00
2023-04-16T17:05:17.177Z,15.13
2023-04-16T17:07:47.255Z,15.23
2023-04-16T17:10:20.516Z,16.43
2023-04-16T17:12:52.563Z,17.63
2023-04-16T17:15:22.365Z,19.23
2023-04-16T17:17:51.173Z,20.17
2023-04-16T17:20:20.054Z,22.87
2023-04-16T17:22:51.595Z,22.23
2023-04-16T17:25:20.043Z,22.47
2023-04-16T17:27:48.373Z,21.27
2023-04-16T17:30:17.026Z,20.53
2023-04-16T17:32:47.904Z,22.73
2023-04-16T17:35:16.510Z,22.47
2023-04-16T17:37:44.680Z,21.63
2023-04-16T17:40:17.585Z,20.17
2023-04-16T17:42:46.378Z,22.50
2023-04-16T17:45:15.063Z,22.03
2023-04-16T17:47:44.470Z,21.60
2023-04-16T17:50:13.573Z,19.87
2023-04-16T17:52:42.912Z,22.00
2023-04-16T17:55:14.301Z,20.77
2023-04-16T17:57:42.686Z,19.13
2023-04-16T18:00:12.694Z,21.43
2023-04-16T18:02:42.120Z,22.83
2023-04-16T18:05:11.550Z,23.27
2023-04-16T18:07:41.086Z,21.73
2023-04-16T18:10:11.045Z,24.00
2023-04-16T18:12:40.914Z,27.27
2023-04-16T18:15:10.621Z,25.30
2023-04-16T18:17:38.994Z,25.70
2023-04-16T18:20:11.854Z,21.67
2023-04-16T18:22:40.260Z,26.90
2023-04-16T18:25:09.248Z,22.63
2023-04-16T18:27:37.353Z,25.27
2023-04-16T18:32:43.877Z,25.37
2023-04-16T18:35:23.648Z,26.97
2023-04-16T18:37:52.399Z,26.97
2023-04-16T18:40:21.079Z,27.63
2023-04-16T18:42:49.281Z,24.40
2023-04-16T18:45:21.893Z,24.17
2023-04-16T18:47:50.926Z,22.90
2023-04-16T18:50:19.147Z,21.77
2023-04-16T18:52:47.446Z,22.07
2023-04-16T18:55:15.794Z,21.40
2023-04-16T18:57:44.304Z,21.07
2023-04-16T19:00:14.375Z,20.40
2023-04-16T19:02:44.384Z,20.10
2023-04-16T19:05:12.667Z,19.20
2023-04-16T19:07:42.481Z,20.93
2023-04-16T19:10:11.115Z,21.60
2023-04-16T19:12:39.714Z,17.43
2023-04-16T19:15:08.754Z,18.67
2023-04-16T19:17:36.825Z,19.70
2023-04-16T19:20:11.477Z,21.57
2023-04-16T19:22:40.097Z,18.20
2023-04-16T19:25:09.009Z,19.43
2023-04-16T19:27:37.190Z,22.70
2023-04-16T19:30:06.576Z,18.57
2023-04-16T19:32:35.239Z,22.53
2023-04-16T19:35:03.657Z,24.30
2023-04-16T19:37:33.117Z,21.13
2023-04-16T19:40:02.284Z,23.37
2023-04-16T19:42:30.785Z,25.53
2023-04-16T19:44:58.873Z,24.00
2023-04-16T19:47:27.458Z,20.37
2023-04-16T19:49:55.871Z,20.93
2023-04-16T19:52:24.563Z,21.87
2023-04-16T19:54:54.181Z,23.27
2023-04-16T19:57:22.494Z,21.40
2023-04-16T19:59:51.183Z,25.67
2023-04-16T20:02:19.352Z,25.03
2023-04-16T20:04:48.736Z,24.43
2023-04-16T20:07:17.664Z,27.77
2023-04-16T20:09:46.292Z,25.07
2023-04-16T20:12:16.720Z,26.37
2023-04-16T20:14:45.124Z,24.87
2023-04-16T20:17:18.905Z,27.23
2023-04-16T20:19:49.697Z,28.07
2023-04-16T20:22:18.928Z,25.57
2023-04-16T20:24:48.557Z,24.57
2023-04-16T20:27:19.985Z,28.50
2023-04-16T20:29:48.732Z,26.17
2023-04-16T20:32:17.135Z,23.50
2023-04-16T20:34:45.550Z,25.13
2023-04-16T20:37:13.933Z,26.60
2023-04-16T20:39:42.398Z,27.97
2023-04-16T20:42:11.298Z,23.67
2023-04-16T20:44:41.754Z,29.43
2023-04-16T20:47:10.035Z,26.63
2023-04-16T20:49:38.420Z,27.07
2023-04-16T20:52:07.555Z,27.00
2023-04-16T20:54:36.157Z,24.53
2023-04-16T20:57:05.256Z,27.33
2023-04-16T20:59:33.906Z,32.20
2023-04-16T21:02:03.721Z,26.00
2023-04-16T21:04:31.952Z,30.00
2023-04-16T21:07:03.321Z,29.30
2023-04-16T21:09:31.880Z,31.60
2023-04-16T21:12:00.138Z,30.67
2023-04-16T21:14:29.662Z,27.93
2023-04-16T21:16:58.052Z,31.60
2023-04-16T21:19:27.569Z,29.27
2023-04-16T21:21:56.179Z,29.27
2023-04-16T21:24:24.634Z,30.17
2023-04-16T21:26:52.968Z,30.67
2023-04-16T21:29:21.261Z,30.83
2023-04-16T21:31:49.439Z,31.60
2023-04-16T21:34:18.023Z,31.97
2023-04-16T21:36:47.924Z,31.90
2023-04-16T21:39:17.690Z,31.73
2023-04-16T21:41:45.978Z,31.50
2023-04-16T21:44:15.141Z,32.50
2023-04-16T21:46:43.426Z,28.77
2023-04-16T21:49:11.764Z,32.47
2023-04-16T21:51:40.764Z,33.27
2023-04-16T21:54:10.329Z,30.17
2023-04-16T21:56:38.979Z,31.47
2023-04-16T21:59:07.148Z,32.60
2023-04-16T22:01:36.938Z,35.90
2023-04-16T22:04:06.000Z,37.57
2023-04-16T22:06:34.439Z,31.87
2023-04-16T22:09:03.040Z,35.97
2023-04-16T22:11:32.566Z,38.03
2023-04-16T22:14:01.007Z,35.23
2023-04-16T22:16:29.325Z,34.43
2023-04-16T22:18:57.555Z,36.03
2023-04-16T22:21:26.249Z,37.90
2023-04-16T22:23:54.755Z,34.03
2023-04-16T22:26:22.920Z,37.40
2023-04-16T22:28:52.527Z,36.80
2023-04-16T22:31:21.362Z,38.43
2023-04-16T22:33:49.947Z,39.93
2023-04-16T22:36:18.000Z,33.87
2023-04-16T22:38:48.000Z,34.43
2023-04-16T22:41:16.559Z,34.80
2023-04-16T22:43:44.725Z,36.13
2023-04-16T22:46:14.332Z,36.37
2023-04-16T22:48:42.472Z,35.70
2023-04-16T22:51:10.813Z,34.23
2023-04-16T22:53:39.563Z,37.23
2023-04-16T22:56:08.356Z,36.77
2023-04-16T22:58:37.090Z,33.50
2023-04-16T23:01:05.683Z,37.17
2023-04-16T23:03:35.827Z,36.50
2023-04-16T23:06:04.708Z,37.37
2023-04-16T23:08:33.176Z,35.90
2023-04-16T23:11:01.560Z,38.13
2023-04-16T23:13:30.092Z,40.17
2023-04-16T23:15:58.632Z,35.93
2023-04-16T23:18:27.049Z,34.60
2023-04-16T23:20:57.046Z,33.93
2023-04-16T23:23:25.353Z,33.17
2023-04-16T23:25:54.612Z,32.57
2023-04-16T23:28:22.762Z,32.07
2023-04-16T23:30:53.420Z,33.77
2023-04-16T23:33:21.929Z,34.03
2023-04-16T23:35:50.068Z,34.80
2023-04-16T23:38:20.264Z,37.77
2023-04-16T23:40:48.596Z,34.00
2023-04-16T23:43:17.202Z,36.00
2023-04-16T23:45:45.673Z,32.93
2023-04-16T23:48:14.374Z,38.67
2023-04-16T23:50:43.137Z,40.90
2023-04-16T23:53:11.447Z,34.87
2023-04-16T23:55:41.427Z,37.03
2023-04-16T23:58:09.514Z,33.93
